createdAt,value
2018-01-20T00:01:27.660Z,4.53
2018-01-20T00:03:55.114Z,5.87
2018-01-20T00:06:22.570Z,9.73
2018-01-20T00:08:50.046Z,5.03
2018-01-20T00:11:29.327Z,10.90
2018-01-20T00:13:56.786Z,9.87
2018-01-20T00:16:24.246Z,9.40
2018-01-20T00:18:51.705Z,6.73
2018-01-20T00:21:19.185Z,5.40
2018-01-20T00:23:46.642Z,10.33
2018-01-20T00:26:31.589Z,5.77
2018-01-20T00:28:59.046Z,4.90
2018-01-20T00:31:26.501Z,7.97
2018-01-20T00:33:53.986Z,13.17
2018-01-20T00:36:21.442Z,12.13
2018-01-20T00:38:48.902Z,6.77
2018-01-20T00:41:16.367Z,8.03
2018-01-20T00:43:43.831Z,4.27
2018-01-20T00:46:11.291Z,5.63
2018-01-20T00:48:38.762Z,8.83
2018-01-20T00:51:06.978Z,4.10
2018-01-20T00:53:34.439Z,10.10
2018-01-20T00:56:01.929Z,4.00
2018-01-20T00:58:29.398Z,7.33
2018-01-20T01:00:57.619Z,4.70
2018-01-20T01:03:25.082Z,5.93
2018-01-20T01:05:52.554Z,2.70
2018-01-20T01:08:20.007Z,5.07
2018-01-20T01:10:47.478Z,7.07
2018-01-20T01:13:14.998Z,5.13
2018-01-20T01:15:42.457Z,5.80
2018-01-20T01:18:09.954Z,4.70
2018-01-20T01:20:37.415Z,9.70
2018-01-20T01:23:04.874Z,12.03
2018-01-20T01:25:32.342Z,9.23
2018-01-20T01:28:00.578Z,6.77
2018-01-20T01:30:28.051Z,9.43
2018-01-20T01:32:55.510Z,5.20
2018-01-20T01:35:22.969Z,10.67
2018-01-20T01:37:50.421Z,6.53
2018-01-20T01:40:17.892Z,5.20
2018-01-20T01:42:45.342Z,10.40
2018-01-20T01:45:12.818Z,9.07
2018-01-20T01:47:41.054Z,2.17
2018-01-20T01:50:08.515Z,12.23
2018-01-20T01:52:35.993Z,7.10
2018-01-20T01:55:03.463Z,4.30
2018-01-20T01:57:31.691Z,3.03
2018-01-20T01:59:59.141Z,5.00
2018-01-20T02:02:26.625Z,5.90
2018-01-20T02:04:54.078Z,5.53
2018-01-20T02:07:21.542Z,7.20
2018-01-20T02:09:49.015Z,6.23
2018-01-20T02:12:17.235Z,3.70
2018-01-20T02:14:44.689Z,5.13
2018-01-20T02:17:12.167Z,7.00
2018-01-20T02:19:39.629Z,7.17
2018-01-20T02:22:07.096Z,10.90
2018-01-20T02:24:34.566Z,7.70
2018-01-20T02:27:02.023Z,4.87
2018-01-20T02:29:29.474Z,15.43
2018-01-20T02:31:56.942Z,14.33
2018-01-20T02:34:25.166Z,9.53
2018-01-20T02:36:52.632Z,6.00
2018-01-20T02:39:20.098Z,5.23
2018-01-20T02:41:47.558Z,3.17
2018-01-20T02:44:15.011Z,3.90
2018-01-20T02:46:42.486Z,6.83
2018-01-20T02:49:09.979Z,6.50
2018-01-20T02:51:37.440Z,10.83
2018-01-20T02:54:04.921Z,11.57
2018-01-20T02:56:32.375Z,12.83
2018-01-20T02:58:59.829Z,33.30
2018-01-20T03:01:27.298Z,13.73
2018-01-20T03:03:55.523Z,17.33
2018-01-20T03:06:23.747Z,12.80
2018-01-20T03:08:51.223Z,13.50
2018-01-20T03:11:18.678Z,18.37
2018-01-20T03:13:46.130Z,20.43
2018-01-20T03:16:13.607Z,16.27
2018-01-20T03:18:41.672Z,16.30
2018-01-20T03:21:09.138Z,15.90
2018-01-20T03:23:36.611Z,20.27
2018-01-20T03:26:04.826Z,9.97
2018-01-20T03:28:32.286Z,16.93
2018-01-20T03:30:59.765Z,17.27
2018-01-20T03:33:27.233Z,25.80
2018-01-20T03:35:54.707Z,14.30
2018-01-20T03:38:22.938Z,14.60
2018-01-20T03:40:50.410Z,11.23
2018-01-20T03:43:17.883Z,22.23
2018-01-20T03:45:45.346Z,18.53
2018-01-20T03:48:13.573Z,18.20
2018-01-20T03:50:41.062Z,21.73
2018-01-20T03:53:08.532Z,16.63
2018-01-20T03:55:35.998Z,15.53
2018-01-20T03:58:04.234Z,20.97
2018-01-20T04:00:31.705Z,12.67
2018-01-20T04:02:59.170Z,13.00
2018-01-20T04:05:26.696Z,17.80
2018-01-20T04:07:54.131Z,18.10
2018-01-20T04:10:21.618Z,16.40
2018-01-20T04:12:49.088Z,18.73
2018-01-20T04:15:16.558Z,17.57
2018-01-20T04:17:44.026Z,18.10
2018-01-20T04:20:12.288Z,17.27
2018-01-20T04:22:39.756Z,14.23
2018-01-20T04:25:07.990Z,17.83
2018-01-20T04:27:35.463Z,19.77
2018-01-20T04:30:02.942Z,18.03
2018-01-20T04:32:30.410Z,22.37
2018-01-20T04:34:58.647Z,22.27
2018-01-20T04:37:26.121Z,21.63
2018-01-20T04:39:53.582Z,17.27
2018-01-20T04:42:21.042Z,10.27
2018-01-20T04:44:48.506Z,28.93
2018-01-20T04:47:16.745Z,35.83
2018-01-20T04:49:44.223Z,18.03
2018-01-20T04:52:11.699Z,15.00
2018-01-20T04:54:39.935Z,15.30
2018-01-20T04:57:07.446Z,22.33
2018-01-20T04:59:34.922Z,18.83
2018-01-20T05:02:02.394Z,33.67
2018-01-20T05:04:29.904Z,30.97
2018-01-20T05:06:58.141Z,17.33
2018-01-20T05:09:25.614Z,16.50
2018-01-20T05:11:53.088Z,11.03
2018-01-20T05:14:21.324Z,21.07
2018-01-20T05:16:48.814Z,17.10
2018-01-20T05:19:17.050Z,18.00
2018-01-20T05:21:44.518Z,22.90
2018-01-20T05:24:11.991Z,15.40
2018-01-20T05:26:39.462Z,25.30
2018-01-20T05:29:07.715Z,24.07
2018-01-20T05:31:35.181Z,22.30
2018-01-20T05:34:02.651Z,21.47
2018-01-20T05:36:30.124Z,23.83
2018-01-20T05:38:58.379Z,27.60
2018-01-20T05:41:25.830Z,15.57
2018-01-20T05:43:53.303Z,16.83
2018-01-20T05:46:21.553Z,26.30
2018-01-20T05:48:49.048Z,24.70
2018-01-20T05:51:16.524Z,22.37
2018-01-20T05:53:43.983Z,21.87
2018-01-20T05:56:11.446Z,34.73
2018-01-20T05:58:38.913Z,21.20
2018-01-20T06:01:06.382Z,26.40
2018-01-20T06:03:33.867Z,34.97
2018-01-20T06:06:01.338Z,18.70
2018-01-20T06:08:29.582Z,17.97
2018-01-20T06:10:57.058Z,30.53
2018-01-20T06:13:24.523Z,21.90
2018-01-20T06:15:52.763Z,21.50
2018-01-20T06:18:20.215Z,20.50
2018-01-20T06:20:47.686Z,25.97
2018-01-20T06:23:15.158Z,28.00
2018-01-20T06:25:43.386Z,24.43
2018-01-20T06:28:10.936Z,22.10
2018-01-20T06:30:38.384Z,22.60
2018-01-20T06:33:05.854Z,39.40
2018-01-20T06:35:33.346Z,23.83
2018-01-20T06:38:00.816Z,14.43
2018-01-20T06:40:28.274Z,20.07
2018-01-20T06:42:55.743Z,21.63
2018-01-20T06:45:23.982Z,23.47
2018-01-20T06:47:51.456Z,34.83
2018-01-20T06:50:18.948Z,27.60
2018-01-20T06:52:46.434Z,34.20
2018-01-20T06:55:13.916Z,23.67
2018-01-20T06:57:41.603Z,28.10
2018-01-20T07:00:09.062Z,24.50
2018-01-20T07:02:36.670Z,30.60
2018-01-20T07:05:04.407Z,27.07
2018-01-20T07:07:31.914Z,32.43
2018-01-20T07:09:59.595Z,16.27
2018-01-20T07:12:27.854Z,36.80
2018-01-20T07:14:55.358Z,39.87
2018-01-20T07:17:22.838Z,27.90
2018-01-20T07:19:50.314Z,37.87
2018-01-20T07:22:17.787Z,34.63
2018-01-20T07:24:45.248Z,24.73
2018-01-20T07:27:12.702Z,22.83
2018-01-20T07:29:40.178Z,23.80
2018-01-20T07:32:08.403Z,30.23
2018-01-20T07:34:35.864Z,34.57
2018-01-20T07:37:03.345Z,26.17
2018-01-20T07:39:30.806Z,31.93
2018-01-20T07:41:58.275Z,40.97
2018-01-20T07:44:26.518Z,27.73
2018-01-20T07:46:53.982Z,32.07
2018-01-20T07:49:21.443Z,37.20
2018-01-20T07:51:48.918Z,27.20
2018-01-20T07:54:17.154Z,33.63
2018-01-20T07:56:44.730Z,27.80
2018-01-20T07:59:12.215Z,34.03
2018-01-20T08:01:40.454Z,43.47
2018-01-20T08:04:07.915Z,32.83
2018-01-20T08:06:35.400Z,22.50
2018-01-20T08:09:02.858Z,36.90
2018-01-20T08:11:31.090Z,27.83
2018-01-20T08:13:58.573Z,27.47
2018-01-20T08:16:26.042Z,17.70
2018-01-20T08:18:53.494Z,27.73
2018-01-20T08:21:20.974Z,21.67
2018-01-20T08:23:48.430Z,28.47
2018-01-20T08:26:15.894Z,29.57
2018-01-20T08:28:44.149Z,22.67
2018-01-20T08:31:11.662Z,23.57
2018-01-20T08:33:39.120Z,27.80
2018-01-20T08:36:06.597Z,31.07
2018-01-20T08:38:34.054Z,16.67
2018-01-20T08:41:01.519Z,23.40
2018-01-20T08:43:28.998Z,22.97
2018-01-20T08:45:56.477Z,17.60
2018-01-20T08:48:23.955Z,16.30
2018-01-20T08:50:51.429Z,24.00
2018-01-20T08:53:18.894Z,18.90
2018-01-20T08:55:46.356Z,18.70
2018-01-20T08:58:13.826Z,22.50
2018-01-20T09:00:41.294Z,19.40
2018-01-20T09:03:09.538Z,29.90
2018-01-20T09:05:37.015Z,24.00
2018-01-20T09:08:04.466Z,19.70
2018-01-20T09:10:31.977Z,17.40
2018-01-20T09:12:59.454Z,18.53
2018-01-20T09:15:26.911Z,20.83
2018-01-20T09:17:55.126Z,24.50
2018-01-20T09:20:23.366Z,25.43
2018-01-20T09:22:50.819Z,21.57
2018-01-20T09:25:18.279Z,21.37
2018-01-20T09:27:45.759Z,21.80
2018-01-20T09:30:13.226Z,20.97
2018-01-20T09:32:41.456Z,17.00
2018-01-20T09:35:08.982Z,15.57
2018-01-20T09:37:36.467Z,19.17
2018-01-20T09:40:04.042Z,18.10
2018-01-20T09:42:31.523Z,20.20
2018-01-20T09:44:58.990Z,22.43
2018-01-20T09:47:27.222Z,16.43
2018-01-20T09:49:55.462Z,20.80
2018-01-20T09:52:22.956Z,19.03
2018-01-20T09:54:52.026Z,22.23
2018-01-20T09:57:19.494Z,18.57
2018-01-20T09:59:46.958Z,18.03
2018-01-20T10:02:14.425Z,24.63
2018-01-20T10:04:41.923Z,22.70
2018-01-20T10:07:10.175Z,18.97
2018-01-20T10:09:37.635Z,19.60
2018-01-20T10:12:05.101Z,19.63
2018-01-20T10:14:33.343Z,21.00
2018-01-20T10:17:00.798Z,22.93
2018-01-20T10:19:28.275Z,23.63
2018-01-20T10:21:55.745Z,31.00
2018-01-20T10:24:23.202Z,26.40
2018-01-20T10:26:51.452Z,22.93
2018-01-20T10:29:18.909Z,23.23
2018-01-20T10:31:46.383Z,26.77
2018-01-20T10:34:13.856Z,24.03
2018-01-20T10:36:42.079Z,26.73
2018-01-20T10:39:09.640Z,32.67
2018-01-20T10:41:37.115Z,26.20
2018-01-20T10:44:04.575Z,28.43
2018-01-20T10:46:32.046Z,30.90
2018-01-20T10:48:59.535Z,38.83
2018-01-20T10:51:26.998Z,29.73
2018-01-20T10:53:54.465Z,33.27
2018-01-20T10:56:21.938Z,26.33
2018-01-20T10:58:49.393Z,32.33
2018-01-20T11:01:16.855Z,29.30
2018-01-20T11:03:44.330Z,33.50
2018-01-20T11:06:19.318Z,32.40
2018-01-20T11:08:46.798Z,37.27
2018-01-20T11:11:14.328Z,29.00
2018-01-20T11:13:41.807Z,33.90
2018-01-20T11:16:09.296Z,32.97
2018-01-20T11:18:36.772Z,37.07
2018-01-20T11:21:04.998Z,27.13
2018-01-20T11:23:32.474Z,34.93
2018-01-20T11:25:59.967Z,39.30
2018-01-20T11:28:28.198Z,30.27
2018-01-20T11:30:55.675Z,32.77
2018-01-20T11:33:23.296Z,33.10
2018-01-20T11:35:50.988Z,33.50
2018-01-20T11:38:36.396Z,26.23
2018-01-20T11:41:04.618Z,31.00
2018-01-20T11:43:32.082Z,28.60
2018-01-20T11:45:59.550Z,27.53
2018-01-20T11:48:27.025Z,29.60
2018-01-20T11:50:54.494Z,32.67
2018-01-20T11:53:21.957Z,30.47
2018-01-20T11:55:50.199Z,32.70
2018-01-20T11:58:17.662Z,30.37
2018-01-20T12:00:45.139Z,34.30
2018-01-20T12:03:12.603Z,33.90
2018-01-20T12:05:40.847Z,36.17
2018-01-20T12:08:08.315Z,32.43
2018-01-20T12:10:35.782Z,35.90
2018-01-20T12:13:03.294Z,34.83
2018-01-20T12:15:30.779Z,33.37
2018-01-20T12:17:58.254Z,29.30
2018-01-20T12:20:26.650Z,41.90
2018-01-20T12:22:54.887Z,32.17
2018-01-20T12:25:23.120Z,30.60
2018-01-20T12:27:50.593Z,34.10
2018-01-20T12:30:18.069Z,30.70
2018-01-20T12:32:45.531Z,35.27
2018-01-20T12:35:12.990Z,35.77
2018-01-20T12:37:40.462Z,39.10
2018-01-20T12:40:07.913Z,34.40
2018-01-20T12:42:35.378Z,37.07
2018-01-20T12:45:02.849Z,41.73
2018-01-20T12:47:31.078Z,35.73
2018-01-20T12:49:58.543Z,32.40
2018-01-20T12:52:26.014Z,34.03
2018-01-20T12:54:53.509Z,39.93
2018-01-20T12:57:20.944Z,33.50
2018-01-20T12:59:49.202Z,28.87
2018-01-20T13:02:16.670Z,35.23
2018-01-20T13:04:44.139Z,41.17
2018-01-20T13:07:12.378Z,34.20
2018-01-20T13:09:39.845Z,35.57
2018-01-20T13:12:07.315Z,36.60
2018-01-20T13:14:34.806Z,39.77
2018-01-20T13:17:02.264Z,34.57
2018-01-20T13:19:29.714Z,33.83
2018-01-20T13:21:57.196Z,37.10
2018-01-20T13:24:24.682Z,35.00
2018-01-20T13:26:52.154Z,37.07
2018-01-20T13:29:19.646Z,29.57
2018-01-20T13:31:47.115Z,44.03
2018-01-20T13:34:15.326Z,28.90
2018-01-20T13:36:42.838Z,28.40
2018-01-20T13:39:10.357Z,29.33
2018-01-20T13:41:37.806Z,31.43
2018-01-20T13:44:06.786Z,30.73
2018-01-20T13:46:34.249Z,30.50
2018-01-20T13:49:01.739Z,42.97
2018-01-20T13:51:29.978Z,37.57
2018-01-20T13:53:57.440Z,29.73
2018-01-20T13:56:24.902Z,30.43
2018-01-20T13:58:52.453Z,25.73
2018-01-20T14:01:19.903Z,29.20
2018-01-20T14:03:47.361Z,27.83
2018-01-20T14:06:14.850Z,20.90
2018-01-20T14:08:43.090Z,19.40
2018-01-20T14:11:10.612Z,18.50
2018-01-20T14:13:38.092Z,19.43
2018-01-20T14:16:05.545Z,18.40
2018-01-20T14:18:33.002Z,14.23
2018-01-20T14:21:00.473Z,16.70
2018-01-20T14:23:27.927Z,11.53
2018-01-20T14:25:55.383Z,12.13
2018-01-20T14:28:22.930Z,12.37
2018-01-20T14:30:50.390Z,13.93
2018-01-20T14:33:17.889Z,13.37
2018-01-20T14:35:45.341Z,11.70
2018-01-20T14:38:12.790Z,11.77
2018-01-20T14:40:40.284Z,13.00
2018-01-20T14:43:08.506Z,18.80
2018-01-20T14:45:35.974Z,14.00
2018-01-20T14:48:03.431Z,11.47
2018-01-20T14:50:30.931Z,10.20
2018-01-20T14:52:58.390Z,13.80
2018-01-20T14:55:25.962Z,15.03
2018-01-20T14:57:53.430Z,12.80
2018-01-20T15:00:20.886Z,13.00
2018-01-20T15:02:48.354Z,12.53
2018-01-20T15:05:15.822Z,12.30
2018-01-20T15:07:43.273Z,12.50
2018-01-20T15:10:10.746Z,13.63
2018-01-20T15:12:38.222Z,12.83
2018-01-20T15:15:06.494Z,12.50
2018-01-20T15:17:34.939Z,13.23
2018-01-20T15:20:02.451Z,12.70
2018-01-20T15:22:30.686Z,11.60
2018-01-20T15:24:58.150Z,10.93
2018-01-20T15:27:25.627Z,10.20
2018-01-20T15:29:53.862Z,11.43
2018-01-20T15:32:21.342Z,15.13
2018-01-20T15:34:48.815Z,13.00
2018-01-20T15:37:17.059Z,14.30
2018-01-20T15:39:44.531Z,13.67
2018-01-20T15:42:11.994Z,14.63
2018-01-20T15:44:39.477Z,14.00
2018-01-20T15:47:06.949Z,13.33
2018-01-20T15:49:34.416Z,14.33
2018-01-20T15:52:01.880Z,16.67
2018-01-20T15:54:29.349Z,14.73
2018-01-20T15:56:56.859Z,13.63
2018-01-20T15:59:24.287Z,14.00
2018-01-20T16:01:51.767Z,14.97
2018-01-20T16:04:19.994Z,13.53
2018-01-20T16:06:47.470Z,16.53
2018-01-20T16:09:14.951Z,15.10
2018-01-20T16:11:43.214Z,17.00
2018-01-20T16:14:13.573Z,12.60
2018-01-20T16:16:41.175Z,14.30
2018-01-20T16:19:08.853Z,12.60
2018-01-20T16:21:36.580Z,15.97
2018-01-20T16:24:04.870Z,12.03
2018-01-20T16:26:32.617Z,14.10
2018-01-20T16:29:01.546Z,13.53
2018-01-20T16:31:30.776Z,13.80
2018-01-20T16:33:58.344Z,16.33
2018-01-20T16:36:25.941Z,14.07
2018-01-20T16:38:57.639Z,14.70
2018-01-20T16:41:25.345Z,15.27
2018-01-20T16:43:52.832Z,14.63
2018-01-20T16:46:20.286Z,21.80
2018-01-20T16:48:47.760Z,12.47
2018-01-20T16:51:15.236Z,20.00
2018-01-20T16:53:43.466Z,16.07
2018-01-20T16:56:10.934Z,16.20
2018-01-20T16:58:38.397Z,14.60
2018-01-20T17:01:05.852Z,14.07
2018-01-20T17:03:33.322Z,16.63
2018-01-20T17:06:00.787Z,12.63
2018-01-20T17:08:29.016Z,18.43
2018-01-20T17:10:56.511Z,20.10
2018-01-20T17:13:23.978Z,16.60
2018-01-20T17:15:52.201Z,17.10
2018-01-20T17:18:19.687Z,17.13
2018-01-20T17:20:47.162Z,21.83
2018-01-20T17:23:15.439Z,19.97
2018-01-20T17:25:43.670Z,23.43
2018-01-20T17:28:11.166Z,21.30
2018-01-20T17:30:39.393Z,21.50
2018-01-20T17:33:06.856Z,25.87
2018-01-20T17:35:34.324Z,24.53
2018-01-20T17:38:01.795Z,20.87
2018-01-20T17:40:29.270Z,21.20
2018-01-20T17:42:57.531Z,23.23
2018-01-20T17:45:25.008Z,23.47
2018-01-20T17:47:53.258Z,22.23
2018-01-20T17:50:20.718Z,23.53
2018-01-20T17:52:48.212Z,27.70
2018-01-20T17:55:15.754Z,25.37
2018-01-20T17:57:43.994Z,22.93
2018-01-20T18:00:11.555Z,22.50
2018-01-20T18:02:39.081Z,22.70
2018-01-20T18:05:06.571Z,24.80
2018-01-20T18:07:34.047Z,19.23
2018-01-20T18:10:01.522Z,20.67
2018-01-20T18:12:29.751Z,20.40
2018-01-20T18:14:57.207Z,18.23
2018-01-20T18:17:24.695Z,16.60
2018-01-20T18:19:52.919Z,20.10
2018-01-20T18:22:20.396Z,23.83
2018-01-20T18:24:47.866Z,18.67
2018-01-20T18:27:16.098Z,21.77
2018-01-20T18:29:43.561Z,18.03
2018-01-20T18:32:11.028Z,19.80
2018-01-20T18:34:38.497Z,24.37
2018-01-20T18:37:05.950Z,19.93
2018-01-20T18:39:33.425Z,20.93
2018-01-20T18:42:00.897Z,19.90
2018-01-20T18:44:28.364Z,21.30
2018-01-20T18:46:56.599Z,24.07
2018-01-20T18:49:24.067Z,19.20
2018-01-20T18:51:51.538Z,18.07
2018-01-20T18:54:19.022Z,20.10
2018-01-20T18:56:47.250Z,20.20
2018-01-20T18:59:14.739Z,19.23
2018-01-20T19:01:42.983Z,23.93
2018-01-20T19:04:10.442Z,20.17
2018-01-20T19:06:37.901Z,27.13
2018-01-20T19:09:05.419Z,29.50
2018-01-20T19:11:32.870Z,31.30
2018-01-20T19:14:00.322Z,31.73
2018-01-20T19:16:27.802Z,79.87
2018-01-20T19:18:55.258Z,38.63
2018-01-20T19:21:22.720Z,29.00
2018-01-20T19:23:50.208Z,30.07
2018-01-20T19:26:17.674Z,32.07
2018-01-20T19:28:45.926Z,30.40
2018-01-20T19:31:13.434Z,39.17
2018-01-20T19:33:40.887Z,58.43
2018-01-20T19:36:08.349Z,42.23
2018-01-20T19:38:35.851Z,48.00
2018-01-20T19:41:03.326Z,42.80
2018-01-20T19:43:30.795Z,42.33
2018-01-20T19:45:59.039Z,34.87
2018-01-20T19:48:28.023Z,20.33
2018-01-20T19:50:55.498Z,13.73
2018-01-20T19:53:22.980Z,12.73
2018-01-20T19:55:51.199Z,11.10
2018-01-20T19:58:18.678Z,8.30
2018-01-20T20:00:46.160Z,7.40
2018-01-20T20:03:14.403Z,7.10
2018-01-20T20:05:41.888Z,6.73
2018-01-20T20:08:09.350Z,6.37
2018-01-20T20:10:37.576Z,5.80
2018-01-20T20:13:05.055Z,6.40
2018-01-20T20:15:32.550Z,5.23
2018-01-20T20:18:00.769Z,6.10
2018-01-20T20:20:28.243Z,7.57
2018-01-20T20:22:55.698Z,6.53
2018-01-20T20:25:23.150Z,9.00
2018-01-20T20:27:50.638Z,8.07
2018-01-20T20:30:18.862Z,5.97
2018-01-20T20:32:46.341Z,4.53
2018-01-20T20:35:13.814Z,5.07
2018-01-20T20:37:41.286Z,6.83
2018-01-20T20:40:09.506Z,9.23
2018-01-20T20:42:36.978Z,7.37
2018-01-20T20:45:04.452Z,7.10
2018-01-20T20:47:31.923Z,11.03
2018-01-20T20:49:59.398Z,10.67
2018-01-20T20:52:27.636Z,7.90
2018-01-20T20:54:55.118Z,12.30
2018-01-20T20:57:22.562Z,6.43
2018-01-20T20:59:50.084Z,5.17
2018-01-20T21:02:17.532Z,11.17
2018-01-20T21:04:45.017Z,11.77
2018-01-20T21:07:13.278Z,8.20
2018-01-20T21:09:40.726Z,8.43
2018-01-20T21:12:08.182Z,8.60
2018-01-20T21:14:35.695Z,8.17
2018-01-20T21:17:03.914Z,15.63
2018-01-20T21:19:31.382Z,17.73
2018-01-20T21:21:58.858Z,13.97
2018-01-20T21:24:26.334Z,16.87
2018-01-20T21:26:53.823Z,24.23
2018-01-20T21:29:21.299Z,21.90
2018-01-20T21:31:48.751Z,17.53
2018-01-20T21:34:16.255Z,13.63
2018-01-20T21:36:43.723Z,11.43
2018-01-20T21:39:11.178Z,9.07
2018-01-20T21:41:39.407Z,10.13
2018-01-20T21:44:06.874Z,13.70
2018-01-20T21:46:34.370Z,12.70
2018-01-20T21:49:03.280Z,14.10
2018-01-20T21:51:31.006Z,13.47
2018-01-20T21:53:58.766Z,7.57
2018-01-20T21:56:27.257Z,5.77
2018-01-20T21:58:55.164Z,4.83
2018-01-20T22:01:22.891Z,5.23
2018-01-20T22:03:50.674Z,5.90
2018-01-20T22:06:19.127Z,5.43
2018-01-20T22:08:46.702Z,6.80
2018-01-20T22:11:15.065Z,8.60
2018-01-20T22:13:42.526Z,9.30
2018-01-20T22:16:10.231Z,9.80
2018-01-20T22:18:38.084Z,6.17
2018-01-20T22:21:06.530Z,9.97
2018-01-20T22:23:34.030Z,7.70
2018-01-20T22:26:01.487Z,7.57
2018-01-20T22:28:28.939Z,14.03
2018-01-20T22:30:56.419Z,11.43
2018-01-20T22:33:23.888Z,10.30
2018-01-20T22:35:51.340Z,7.47
2018-01-20T22:38:18.810Z,11.90
2018-01-20T22:40:46.272Z,11.37
2018-01-20T22:43:13.846Z,13.43
2018-01-20T22:45:41.311Z,13.63
2018-01-20T22:48:09.535Z,18.60
2018-01-20T22:50:36.986Z,11.00
2018-01-20T22:53:04.462Z,14.67
2018-01-20T22:55:31.917Z,11.13
2018-01-20T22:57:59.375Z,11.33
2018-01-20T23:00:26.847Z,11.90
2018-01-20T23:02:54.303Z,13.20
2018-01-20T23:05:21.755Z,11.60
2018-01-20T23:07:49.228Z,8.03
2018-01-20T23:10:16.701Z,13.20
2018-01-20T23:12:44.927Z,14.17
2018-01-20T23:15:12.409Z,10.10
2018-01-20T23:17:39.873Z,12.43
2018-01-20T23:20:07.326Z,9.40
2018-01-20T23:22:34.799Z,14.23
2018-01-20T23:25:03.027Z,13.73
2018-01-20T23:27:30.489Z,17.40
2018-01-20T23:29:57.950Z,8.40
2018-01-20T23:32:25.413Z,15.77
2018-01-20T23:34:52.875Z,5.03
2018-01-20T23:37:20.342Z,6.50
2018-01-20T23:39:47.806Z,13.93
2018-01-20T23:42:15.267Z,9.90
2018-01-20T23:44:42.740Z,6.93
2018-01-20T23:47:10.960Z,8.13
2018-01-20T23:49:38.419Z,8.43
2018-01-20T23:52:05.883Z,7.83
2018-01-20T23:54:33.337Z,9.17
2018-01-20T23:57:00.801Z,10.53
2018-01-20T23:59:28.283Z,13.20
